createdAt,value
2023-01-09T00:00:52.075Z,101476.44
2023-01-09T00:03:22.549Z,101469.94
2023-01-09T00:05:53.476Z,101483.22
2023-01-09T00:08:24.346Z,101473.16
2023-01-09T00:10:54.919Z,101475.84
2023-01-09T00:13:25.302Z,101475.28
2023-01-09T00:16:01.389Z,101478.69
2023-01-09T00:18:32.355Z,101482.78
2023-01-09T00:21:04.299Z,101479.25
2023-01-09T00:23:38.821Z,101486.34
2023-01-09T00:26:15.788Z,101493.69
2023-01-09T00:28:50.494Z,101492.41
2023-01-09T00:31:22.421Z,101492.41
2023-01-09T00:34:02.674Z,101490.84
2023-01-09T00:36:42.119Z,101481.22
2023-01-09T00:39:13.258Z,101493.91
2023-01-09T00:41:47.943Z,101489.66
2023-01-09T00:44:28.690Z,101492.59
2023-01-09T00:47:03.038Z,101491.50
2023-01-09T00:49:36.620Z,101484.28
2023-01-09T00:52:08.402Z,101482.13
2023-01-09T00:54:40.776Z,101487.22
2023-01-09T00:57:14.274Z,101482.53
2023-01-09T00:59:44.856Z,101486.78
2023-01-09T01:02:16.145Z,101480.53
2023-01-09T01:05:05.153Z,101476.22
2023-01-09T01:07:42.112Z,101471.56
2023-01-09T01:10:21.041Z,101466.28
2023-01-09T01:12:54.067Z,101467.38
2023-01-09T01:15:30.200Z,101476.88
2023-01-09T01:18:00.879Z,101473.56
2023-01-09T01:20:31.557Z,101467.06
2023-01-09T01:23:03.029Z,101465.91
2023-01-09T01:25:39.979Z,101461.41
2023-01-09T01:28:11.522Z,101457.56
2023-01-09T01:30:43.133Z,101451.97
2023-01-09T01:33:15.654Z,101451.66
2023-01-09T01:35:46.545Z,101448.28
2023-01-09T01:38:16.855Z,101440.09
2023-01-09T01:40:54.724Z,101446.84
2023-01-09T01:43:26.019Z,101449.38
2023-01-09T01:45:56.927Z,101440.31
2023-01-09T01:48:31.137Z,101443.38
2023-01-09T01:51:03.693Z,101433.16
2023-01-09T01:53:37.571Z,101447.06
2023-01-09T01:56:16.228Z,101434.78
2023-01-09T01:58:56.920Z,101437.56
2023-01-09T02:01:28.679Z,101439.25
2023-01-09T02:04:00.790Z,101427.09
2023-01-09T02:06:31.740Z,101420.63
2023-01-09T02:09:04.685Z,101422.81
2023-01-09T02:11:35.647Z,101418.31
2023-01-09T02:14:07.177Z,101429.91
2023-01-09T02:17:04.699Z,101413.50
2023-01-09T02:20:03.254Z,101413.22
2023-01-09T02:23:15.504Z,101410.75
2023-01-09T02:26:20.958Z,101396.91
2023-01-09T02:29:38.166Z,101391.91
2023-01-09T02:32:15.975Z,101400.31
2023-01-09T02:34:57.957Z,101395.22
2023-01-09T02:37:46.871Z,101391.91
2023-01-09T02:40:41.068Z,101389.78
2023-01-09T02:43:12.435Z,101384.75
2023-01-09T02:45:43.974Z,101382.41
2023-01-09T02:48:34.506Z,101387.63
2023-01-09T02:51:26.115Z,101381.22
2023-01-09T02:54:03.084Z,101383.25
2023-01-09T02:56:41.144Z,101378.72
2023-01-09T02:59:25.757Z,101378.19
2023-01-09T03:02:12.961Z,101372.69
2023-01-09T03:05:01.567Z,101369.03
2023-01-09T03:07:50.192Z,101373.56
2023-01-09T03:10:33.204Z,101361.13
2023-01-09T03:13:05.057Z,101356.06
2023-01-09T03:15:37.613Z,101360.13
2023-01-09T03:18:12.915Z,101350.00
2023-01-09T03:20:44.387Z,101339.91
2023-01-09T03:23:14.724Z,101336.75
2023-01-09T03:25:45.172Z,101331.84
2023-01-09T03:28:30.138Z,101333.53
2023-01-09T03:31:00.540Z,101319.72
2023-01-09T03:33:34.007Z,101317.53
2023-01-09T03:36:04.779Z,101321.25
2023-01-09T03:38:36.213Z,101311.97
2023-01-09T03:41:08.414Z,101310.97
2023-01-09T03:43:39.258Z,101309.63
2023-01-09T03:46:10.197Z,101304.94
2023-01-09T03:48:40.778Z,101289.44
2023-01-09T03:51:13.498Z,101290.13
2023-01-09T03:53:52.739Z,101287.94
2023-01-09T03:56:23.050Z,101285.41
2023-01-09T03:58:54.528Z,101280.03
2023-01-09T04:01:25.242Z,101274.63
2023-01-09T04:03:56.051Z,101255.44
2023-01-09T04:06:29.048Z,101258.13
2023-01-09T04:08:59.756Z,101250.59
2023-01-09T04:11:31.263Z,101248.38
2023-01-09T04:14:01.982Z,101241.31
2023-01-09T04:16:32.991Z,101239.28
2023-01-09T04:19:03.586Z,101238.28
2023-01-09T04:21:34.415Z,101235.25
2023-01-09T04:24:05.168Z,101229.19
2023-01-09T04:26:35.814Z,101228.72
2023-01-09T04:29:06.168Z,101221.47
2023-01-09T04:31:36.843Z,101217.09
2023-01-09T04:34:07.398Z,101214.38
2023-01-09T04:36:38.255Z,101213.72
2023-01-09T04:39:11.879Z,101206.16
2023-01-09T04:41:51.782Z,101198.09
2023-01-09T04:44:27.387Z,101196.56
2023-01-09T04:46:59.979Z,101184.63
2023-01-09T04:49:31.066Z,101188.97
2023-01-09T04:52:02.102Z,101180.56
2023-01-09T04:54:33.193Z,101166.28
2023-01-09T04:57:07.525Z,101162.91
2023-01-09T04:59:38.661Z,101159.19
2023-01-09T05:02:09.445Z,101150.41
2023-01-09T05:04:40.703Z,101138.59
2023-01-09T05:07:11.121Z,101131.31
2023-01-09T05:09:41.708Z,101132.31
2023-01-09T05:12:12.581Z,101130.06
2023-01-09T05:14:43.084Z,101124.81
2023-01-09T05:17:16.131Z,101121.59
2023-01-09T05:19:52.048Z,101111.41
2023-01-09T05:22:22.663Z,101110.34
2023-01-09T05:24:53.132Z,101106.63
2023-01-09T05:27:24.151Z,101092.66
2023-01-09T05:29:55.120Z,101096.47
2023-01-09T05:32:26.496Z,101085.69
2023-01-09T05:34:59.848Z,101085.69
2023-01-09T05:37:30.491Z,101083.19
2023-01-09T05:40:00.810Z,101077.44
2023-01-09T05:42:31.374Z,101074.84
2023-01-09T05:45:02.242Z,101073.56
2023-01-09T05:47:33.697Z,101071.34
2023-01-09T05:50:04.695Z,101061.66
2023-01-09T05:52:38.387Z,101053.28
2023-01-09T05:55:17.719Z,101054.22
2023-01-09T05:57:47.968Z,101051.38
2023-01-09T06:00:19.392Z,101047.00
2023-01-09T06:02:52.441Z,101050.28
2023-01-09T06:05:25.633Z,101048.31
2023-01-09T06:07:58.719Z,101047.81
2023-01-09T06:10:29.323Z,101046.50
2023-01-09T06:13:03.108Z,101048.75
2023-01-09T06:15:35.405Z,101049.81
2023-01-09T06:18:05.837Z,101047.19
2023-01-09T06:20:37.208Z,101043.38
2023-01-09T06:23:07.775Z,101039.84
2023-01-09T06:25:39.509Z,101042.44
2023-01-09T06:28:09.999Z,101049.56
2023-01-09T06:30:40.587Z,101049.06
2023-01-09T06:33:11.565Z,101044.75
2023-01-09T06:35:42.665Z,101042.47
2023-01-09T06:38:13.405Z,101040.31
2023-01-09T06:40:44.060Z,101056.00
2023-01-09T06:43:14.428Z,101036.09
2023-01-09T06:45:46.615Z,101033.59
2023-01-09T06:48:19.077Z,101032.78
2023-01-09T06:51:07.882Z,101029.09
2023-01-09T06:53:38.865Z,101030.81
2023-01-09T06:56:09.302Z,101028.97
2023-01-09T06:58:39.843Z,101030.50
2023-01-09T07:01:11.444Z,101027.50
2023-01-09T07:03:42.138Z,101026.84
2023-01-09T07:06:14.117Z,101024.50
2023-01-09T07:08:47.868Z,101024.50
2023-01-09T07:11:20.609Z,101020.28
2023-01-09T07:13:51.357Z,101027.22
2023-01-09T07:16:27.889Z,101023.50
2023-01-09T07:18:58.770Z,101018.13
2023-01-09T07:21:31.397Z,101025.03
2023-01-09T07:24:07.433Z,101024.19
2023-01-09T07:26:42.129Z,101023.84
2023-01-09T07:29:14.370Z,101023.88
2023-01-09T07:31:48.009Z,101026.56
2023-01-09T07:34:22.589Z,101027.75
2023-01-09T07:36:53.162Z,101024.91
2023-01-09T07:39:25.608Z,101028.09
2023-01-09T07:41:55.968Z,101031.44
2023-01-09T07:44:26.293Z,101032.63
2023-01-09T07:46:56.652Z,101037.69
2023-01-09T07:49:27.210Z,101036.31
2023-01-09T07:51:57.956Z,101036.31
2023-01-09T07:54:28.430Z,101041.72
2023-01-09T07:56:58.762Z,101045.09
2023-01-09T07:59:30.650Z,101059.56
2023-01-09T08:02:03.466Z,101046.44
2023-01-09T08:04:42.713Z,101048.28
2023-01-09T08:07:13.046Z,101048.78
2023-01-09T08:09:44.004Z,101055.53
2023-01-09T08:12:14.215Z,101059.25
2023-01-09T08:14:44.658Z,101060.91
2023-01-09T08:17:15.828Z,101055.53
2023-01-09T08:19:46.450Z,101053.84
2023-01-09T08:22:16.719Z,101058.38
2023-01-09T08:24:47.548Z,101068.16
2023-01-09T08:27:18.161Z,101060.41
2023-01-09T08:29:49.267Z,101060.25
2023-01-09T08:32:19.839Z,101058.22
2023-01-09T08:34:50.797Z,101070.00
2023-01-09T08:37:27.437Z,101073.38
2023-01-09T08:39:57.692Z,101076.41
2023-01-09T08:42:46.381Z,101080.59
2023-01-09T08:45:35.352Z,101084.16
2023-01-09T08:48:06.794Z,101081.94
2023-01-09T08:50:38.460Z,101088.50
2023-01-09T08:53:09.230Z,101097.59
2023-01-09T08:55:39.958Z,101090.53
2023-01-09T08:58:10.268Z,101090.88
2023-01-09T09:00:41.022Z,101097.94
2023-01-09T09:03:14.158Z,101096.59
2023-01-09T09:05:46.740Z,101097.28
2023-01-09T09:08:25.901Z,101113.09
2023-01-09T09:11:02.335Z,101108.03
2023-01-09T09:13:35.505Z,101111.75
2023-01-09T09:16:06.033Z,101122.19
2023-01-09T09:18:36.418Z,101125.72
2023-01-09T09:21:06.934Z,101118.47
2023-01-09T09:23:39.787Z,101126.56
2023-01-09T09:26:10.613Z,101128.25
2023-01-09T09:28:41.591Z,101133.63
2023-01-09T09:31:15.222Z,101139.34
2023-01-09T09:33:45.954Z,101137.31
2023-01-09T09:36:16.513Z,101141.22
2023-01-09T09:38:46.974Z,101140.69
2023-01-09T09:41:47.469Z,101147.06
2023-01-09T09:44:55.198Z,101140.34
2023-01-09T09:47:41.416Z,101153.81
2023-01-09T09:50:42.686Z,101148.44
2023-01-09T09:53:27.998Z,101156.50
2023-01-09T09:56:02.659Z,101163.22
2023-01-09T09:58:39.270Z,101160.53
2023-01-09T10:01:11.574Z,101164.41
2023-01-09T10:03:55.043Z,101164.56
2023-01-09T10:06:32.628Z,101170.13
2023-01-09T10:09:13.324Z,101173.16
2023-01-09T10:12:28.109Z,101177.53
2023-01-09T10:15:03.756Z,101181.72
2023-01-09T10:17:58.425Z,101185.28
2023-01-09T10:20:50.818Z,101183.59
2023-01-09T10:23:28.684Z,101187.63
2023-01-09T10:26:03.806Z,101191.31
2023-01-09T10:28:47.098Z,101201.06
2023-01-09T10:31:39.446Z,101200.72
2023-01-09T10:34:40.653Z,101208.28
2023-01-09T10:37:49.615Z,101212.50
2023-01-09T10:40:23.819Z,101227.97
2023-01-09T10:43:22.368Z,101228.78
2023-01-09T10:46:00.441Z,101232.09
2023-01-09T10:48:37.853Z,101233.09
2023-01-09T10:51:45.831Z,101238.41
2023-01-09T10:54:23.137Z,101229.41
2023-01-09T10:57:04.319Z,101241.72
2023-01-09T10:59:35.505Z,101246.94
2023-01-09T11:02:05.934Z,101252.63
2023-01-09T11:04:39.785Z,101250.94
2023-01-09T11:07:37.512Z,101259.69
2023-01-09T11:10:12.865Z,101259.34
2023-01-09T11:12:44.211Z,101259.00
2023-01-09T11:15:20.239Z,101269.75
2023-01-09T11:17:52.936Z,101264.72
2023-01-09T11:20:29.651Z,101273.78
2023-01-09T11:23:00.490Z,101265.72
2023-01-09T11:25:36.772Z,101281.19
2023-01-09T11:28:11.129Z,101281.81
2023-01-09T11:31:03.931Z,101285.91
2023-01-09T11:33:43.996Z,101287.91
2023-01-09T11:36:17.717Z,101279.34
2023-01-09T11:38:52.402Z,101269.75
2023-01-09T11:41:39.312Z,101279.16
2023-01-09T11:44:15.455Z,101288.75
2023-01-09T11:46:47.616Z,101280.84
2023-01-09T11:49:30.259Z,101282.53
2023-01-09T11:52:23.468Z,101280.53
2023-01-09T11:55:07.929Z,101281.53
2023-01-09T11:57:38.929Z,101283.53
2023-01-09T12:00:33.386Z,101295.00
2023-01-09T12:03:29.029Z,101293.16
2023-01-09T12:06:26.528Z,101279.22
2023-01-09T12:09:31.828Z,101285.97
2023-01-09T12:12:26.124Z,101293.69
2023-01-09T12:15:35.232Z,101282.28
2023-01-09T12:18:38.013Z,101285.66
2023-01-09T12:21:36.576Z,101295.59
2023-01-09T12:24:07.919Z,101310.38
2023-01-09T12:27:00.970Z,101302.31
2023-01-09T12:29:43.988Z,101297.28
2023-01-09T12:32:23.390Z,101311.72
2023-01-09T12:34:56.762Z,101309.72
2023-01-09T12:37:42.305Z,101306.84
2023-01-09T12:40:18.594Z,101314.56
2023-01-09T12:42:51.982Z,101320.28
2023-01-09T12:45:43.896Z,101317.78
2023-01-09T12:48:46.439Z,101312.09
2023-01-09T12:51:35.332Z,101316.78
2023-01-09T12:54:24.163Z,101319.31
2023-01-09T12:56:57.602Z,101315.44
2023-01-09T12:59:46.574Z,101325.88
2023-01-09T13:02:46.764Z,101326.88
2023-01-09T13:05:25.005Z,101326.00
2023-01-09T13:08:08.093Z,101325.00
2023-01-09T13:10:45.298Z,101331.41
2023-01-09T13:14:00.169Z,101321.16
2023-01-09T13:16:44.565Z,101325.34
2023-01-09T13:19:38.401Z,101338.47
2023-01-09T13:22:09.188Z,101334.41
2023-01-09T13:24:54.348Z,101332.72
2023-01-09T13:27:26.512Z,101331.91
2023-01-09T13:30:12.135Z,101331.03
2023-01-09T13:33:20.330Z,101328.19
2023-01-09T13:35:55.672Z,101321.97
2023-01-09T13:38:28.423Z,101321.13
2023-01-09T13:41:45.828Z,101323.66
2023-01-09T13:44:29.977Z,101318.44
2023-01-09T13:47:02.903Z,101315.22
2023-01-09T13:49:38.565Z,101317.19
2023-01-09T13:52:40.297Z,101321.97
2023-01-09T13:55:17.010Z,101321.75
2023-01-09T13:58:05.768Z,101329.66
2023-01-09T14:00:50.319Z,101332.28
2023-01-09T14:03:41.533Z,101330.97
2023-01-09T14:06:17.320Z,101330.97
2023-01-09T14:08:50.407Z,101334.97
2023-01-09T14:11:23.072Z,101327.91
2023-01-09T14:14:03.175Z,101323.69
2023-01-09T14:16:34.929Z,101321.47
2023-01-09T14:19:25.275Z,101329.06
2023-01-09T14:21:59.170Z,101326.84
2023-01-09T14:24:53.411Z,101318.09
2023-01-09T14:28:09.879Z,101327.69
2023-01-09T14:31:00.256Z,101328.31
2023-01-09T14:33:34.160Z,101323.25
2023-01-09T14:36:22.761Z,101314.38
2023-01-09T14:39:02.454Z,101320.06
2023-01-09T14:42:03.357Z,101319.56
2023-01-09T14:44:54.456Z,101318.69
2023-01-09T14:47:35.542Z,101318.88
2023-01-09T14:50:33.141Z,101321.03
2023-01-09T14:53:20.250Z,101317.13
2023-01-09T14:56:04.001Z,101313.44
2023-01-09T14:58:37.387Z,101315.75
2023-01-09T15:01:07.774Z,101308.69
2023-01-09T15:03:45.437Z,101305.31
2023-01-09T15:06:32.850Z,101306.38
2023-01-09T15:09:09.395Z,101306.50
2023-01-09T15:11:41.337Z,101304.94
2023-01-09T15:14:36.978Z,101307.00
2023-01-09T15:17:40.323Z,101296.88
2023-01-09T15:20:23.087Z,101299.75
2023-01-09T15:22:56.067Z,101295.00
2023-01-09T15:25:44.931Z,101295.50
2023-01-09T15:28:26.811Z,101283.06
2023-01-09T15:31:08.712Z,101275.38
2023-01-09T15:33:41.697Z,101281.06
2023-01-09T15:36:25.172Z,101281.94
2023-01-09T15:38:56.519Z,101267.75
2023-01-09T15:42:05.947Z,101271.88
2023-01-09T15:44:39.744Z,101274.75
2023-01-09T15:47:16.861Z,101270.94
2023-01-09T15:49:47.955Z,101275.25
2023-01-09T15:52:20.497Z,101275.81
2023-01-09T15:54:51.312Z,101269.13
2023-01-09T15:57:27.969Z,101267.69
2023-01-09T16:00:32.617Z,101271.56
2023-01-09T16:03:13.528Z,101273.81
2023-01-09T16:05:49.908Z,101275.69
2023-01-09T16:08:26.571Z,101273.81
2023-01-09T16:11:10.860Z,101267.44
2023-01-09T16:13:45.699Z,101263.75
2023-01-09T16:16:26.664Z,101262.38
2023-01-09T16:18:58.341Z,101270.75
2023-01-09T16:21:38.597Z,101263.28
2023-01-09T16:24:18.977Z,101269.75
2023-01-09T16:26:53.000Z,101259.31
2023-01-09T16:29:31.607Z,101256.22
2023-01-09T16:32:06.355Z,101250.53
2023-01-09T16:34:37.315Z,101250.72
2023-01-09T16:37:08.072Z,101253.72
2023-01-09T16:39:39.673Z,101247.19
2023-01-09T16:42:28.963Z,101238.75
2023-01-09T16:44:59.224Z,101234.38
2023-01-09T16:47:30.006Z,101225.69
2023-01-09T16:50:06.143Z,101228.47
2023-01-09T16:52:36.954Z,101215.75
2023-01-09T16:55:07.898Z,101217.25
2023-01-09T16:57:38.792Z,101206.13
2023-01-09T17:00:19.448Z,101215.03
2023-01-09T17:02:49.675Z,101203.88
2023-01-09T17:05:20.095Z,101201.84
2023-01-09T17:07:50.884Z,101191.78
2023-01-09T17:10:25.984Z,101208.28
2023-01-09T17:12:57.998Z,101211.56
2023-01-09T17:15:30.381Z,101208.19
2023-01-09T17:18:19.077Z,101199.38
2023-01-09T17:20:52.132Z,101193.16
2023-01-09T17:23:23.448Z,101199.09
2023-01-09T17:26:16.025Z,101200.25
2023-01-09T17:28:51.217Z,101203.22
2023-01-09T17:31:21.794Z,101195.16
2023-01-09T17:33:54.043Z,101200.84
2023-01-09T17:36:33.061Z,101190.09
2023-01-09T17:39:04.313Z,101174.28
2023-01-09T17:41:35.172Z,101183.34
2023-01-09T17:44:05.745Z,101186.88
2023-01-09T17:46:38.752Z,101176.59
2023-01-09T17:49:15.670Z,101172.22
2023-01-09T17:51:52.388Z,101175.91
2023-01-09T17:54:25.344Z,101166.19
2023-01-09T17:57:02.361Z,101166.03
2023-01-09T17:59:33.119Z,101166.19
2023-01-09T18:02:04.184Z,101155.75
2023-01-09T18:04:43.442Z,101150.06
2023-01-09T18:07:17.758Z,101150.38
2023-01-09T18:09:48.103Z,101151.38
2023-01-09T18:12:18.864Z,101147.03
2023-01-09T18:14:49.346Z,101147.88
2023-01-09T18:17:20.343Z,101152.41
2023-01-09T18:19:51.782Z,101148.03
2023-01-09T18:22:22.922Z,101143.97
2023-01-09T18:24:53.748Z,101142.59
2023-01-09T18:27:24.468Z,101143.97
2023-01-09T18:29:55.297Z,101129.88
2023-01-09T18:32:26.049Z,101128.19
2023-01-09T18:34:56.373Z,101125.81
2023-01-09T18:37:28.346Z,101121.50
2023-01-09T18:39:58.746Z,101111.06
2023-01-09T18:42:29.456Z,101109.78
2023-01-09T18:44:59.750Z,101108.78
2023-01-09T18:47:30.264Z,101102.72
2023-01-09T18:50:00.933Z,101100.72
2023-01-09T18:52:31.188Z,101100.72
2023-01-09T18:55:01.625Z,101090.66
2023-01-09T18:57:32.137Z,101087.44
2023-01-09T19:00:02.433Z,101094.66
2023-01-09T19:02:33.086Z,101093.13
2023-01-09T19:05:03.346Z,101091.97
2023-01-09T19:07:33.928Z,101088.28
2023-01-09T19:10:04.557Z,101084.59
2023-01-09T19:12:35.130Z,101083.25
2023-01-09T19:15:11.817Z,101082.38
2023-01-09T19:17:42.577Z,101079.31
2023-01-09T19:20:13.764Z,101084.59
2023-01-09T19:22:44.251Z,101084.59
2023-01-09T19:25:15.296Z,101085.59
2023-01-09T19:27:46.398Z,101082.06
2023-01-09T19:30:17.492Z,101082.38
2023-01-09T19:32:47.974Z,101092.97
2023-01-09T19:35:18.755Z,101092.28
2023-01-09T19:37:51.576Z,101092.28
2023-01-09T19:40:21.988Z,101093.59
2023-01-09T19:42:55.458Z,101092.75
2023-01-09T19:45:26.779Z,101083.69
2023-01-09T19:47:57.436Z,101084.19
2023-01-09T19:50:27.927Z,101082.50
2023-01-09T19:52:58.280Z,101091.00
2023-01-09T19:55:28.869Z,101092.69
2023-01-09T19:58:00.345Z,101086.50
2023-01-09T20:00:33.684Z,101091.00
2023-01-09T20:03:06.550Z,101100.03
2023-01-09T20:05:37.211Z,101096.69
2023-01-09T20:08:18.337Z,101086.81
2023-01-09T20:10:48.733Z,101097.84
2023-01-09T20:13:19.092Z,101097.00
2023-01-09T20:15:49.794Z,101104.22
2023-01-09T20:18:20.027Z,101108.88
2023-01-09T20:20:51.743Z,101110.88
2023-01-09T20:23:23.166Z,101104.66
2023-01-09T20:26:01.802Z,101104.97
2023-01-09T20:28:32.408Z,101116.56
2023-01-09T20:31:03.961Z,101116.56
2023-01-09T20:33:37.076Z,101116.88
2023-01-09T20:36:08.197Z,101112.31
2023-01-09T20:38:39.867Z,101117.84
2023-01-09T20:41:24.589Z,101119.56
2023-01-09T20:43:58.388Z,101121.38
2023-01-09T20:46:31.530Z,101118.84
2023-01-09T20:49:07.488Z,101124.19
2023-01-09T20:51:42.048Z,101127.03
2023-01-09T20:54:12.438Z,101114.09
2023-01-09T20:56:43.346Z,101128.50
2023-01-09T20:59:18.034Z,101123.44
2023-01-09T21:01:48.757Z,101131.31
2023-01-09T21:04:19.932Z,101134.16
2023-01-09T21:06:50.736Z,101132.47
2023-01-09T21:09:21.786Z,101138.84
2023-01-09T21:11:55.479Z,101141.66
2023-01-09T21:14:28.592Z,101139.84
2023-01-09T21:16:59.030Z,101144.19
2023-01-09T21:19:29.263Z,101140.66
2023-01-09T21:21:59.627Z,101145.19
2023-01-09T21:24:30.508Z,101150.88
2023-01-09T21:27:01.732Z,101155.06
2023-01-09T21:29:32.737Z,101158.22
2023-01-09T21:32:03.474Z,101159.75
2023-01-09T21:34:34.663Z,101159.91
2023-01-09T21:37:05.005Z,101152.84
2023-01-09T21:39:35.650Z,101160.22
2023-01-09T21:42:24.426Z,101158.53
2023-01-09T21:45:13.295Z,101163.88
2023-01-09T21:47:44.780Z,101172.06
2023-01-09T21:50:17.348Z,101171.06
2023-01-09T21:52:47.811Z,101176.91
2023-01-09T21:55:18.710Z,101180.44
2023-01-09T21:57:50.057Z,101180.59
2023-01-09T22:00:21.299Z,101189.63
2023-01-09T22:02:51.934Z,101187.94
2023-01-09T22:05:25.482Z,101189.91
2023-01-09T22:07:57.508Z,101192.47
2023-01-09T22:10:28.521Z,101197.84
2023-01-09T22:13:21.433Z,101195.00
2023-01-09T22:15:52.002Z,101204.03
2023-01-09T22:18:23.372Z,101209.69
2023-01-09T22:20:53.585Z,101206.00
2023-01-09T22:23:24.548Z,101202.63
2023-01-09T22:25:55.523Z,101214.22
2023-01-09T22:28:26.631Z,101212.53
2023-01-09T22:31:00.090Z,101221.72
2023-01-09T22:33:30.956Z,101215.50
2023-01-09T22:36:09.746Z,101229.91
2023-01-09T22:38:40.247Z,101234.41
2023-01-09T22:41:11.226Z,101234.59
2023-01-09T22:43:41.653Z,101235.28
2023-01-09T22:46:12.433Z,101233.72
2023-01-09T22:48:43.519Z,101242.75
2023-01-09T22:51:18.799Z,101235.72
2023-01-09T22:53:49.481Z,101242.06
2023-01-09T22:56:22.125Z,101246.72
2023-01-09T22:58:54.452Z,101251.25
2023-01-09T23:01:34.862Z,101248.72
2023-01-09T23:04:15.385Z,101253.25
2023-01-09T23:06:46.025Z,101254.06
2023-01-09T23:09:16.328Z,101249.56
2023-01-09T23:12:04.822Z,101256.75
2023-01-09T23:14:40.007Z,101260.28
2023-01-09T23:17:12.204Z,101261.13
2023-01-09T23:19:45.996Z,101253.94
2023-01-09T23:22:16.306Z,101254.06
2023-01-09T23:24:52.468Z,101261.13
2023-01-09T23:27:22.717Z,101261.13
2023-01-09T23:29:53.401Z,101260.13
2023-01-09T23:32:23.834Z,101261.13
2023-01-09T23:34:59.279Z,101259.13
2023-01-09T23:37:30.691Z,101255.47
2023-01-09T23:40:01.223Z,101262.53
2023-01-09T23:42:49.957Z,101258.16
2023-01-09T23:45:20.728Z,101266.88
2023-01-09T23:47:51.049Z,101271.25
2023-01-09T23:50:22.031Z,101272.25
2023-01-09T23:53:03.701Z,101287.06
2023-01-09T23:55:36.363Z,101290.72
2023-01-09T23:58:06.897Z,101298.63
